UAE5AM NZAA-OMDB
Flight info
| Callsign | UAE5AM |
|---|---|
| Flight time | N/A |
| Altitude | 32000 |
| Route | UPLAR A464 RIGMI/N0496F340 A464 UNVAT DCT 2456S14730E 23S143E 22S141E 21S139E 19S136E/N0498F360 18S134E 17S132E 16S130E DCT SUNPO DCT ONOXA G326 BLI/N0493F380 M766 SELSU/N0485F400 M766 KAT P570 ITURA M762 VAXAS/N0475F240 M762 MIVEK P574 IMPED |
| Aircraft | A359/H-SDE2E3GHIJ3J4J5LM1ORWXY/LB1D1 |
Departure
| Time | N/A |
|---|---|
| Airport | Auckland International Airport (NZAA) |
Arrival
| Time | 2026-04-22 15:18 |
|---|---|
| Airport | Dubai International Airport (OMDB) |
| Time | Latitude | Longitude | Altitude | Speed | Heading |
|---|---|---|---|---|---|
| 2026-04-22 14:49 | 23.98658 | 57.27155 | 38169 ft | 428 kts | 305° |
| 2026-04-22 14:50 | 24.00485 | 57.24577 | 37898 ft | 429 kts | 305° |
| 2026-04-22 14:50 | 24.02313 | 57.21994 | 37634 ft | 430 kts | 305° |
| 2026-04-22 14:50 | 24.04151 | 57.19398 | 37373 ft | 431 kts | 305° |
| 2026-04-22 14:50 | 24.05985 | 57.16805 | 37116 ft | 432 kts | 305° |
| 2026-04-22 14:51 | 24.07804 | 57.14234 | 36869 ft | 433 kts | 305° |
| 2026-04-22 14:51 | 24.09653 | 57.11618 | 36616 ft | 435 kts | 305° |
| 2026-04-22 14:51 | 24.11504 | 57.08994 | 36366 ft | 436 kts | 305° |
| 2026-04-22 14:51 | 24.13357 | 57.06368 | 36121 ft | 437 kts | 305° |
| 2026-04-22 14:52 | 24.15221 | 57.03727 | 35874 ft | 439 kts | 305° |
| 2026-04-22 14:52 | 24.17084 | 57.01088 | 35290 ft | 437 kts | 305° |
| 2026-04-22 14:52 | 24.18950 | 56.98442 | 34456 ft | 441 kts | 305° |
| 2026-04-22 14:52 | 24.20835 | 56.95767 | 33516 ft | 446 kts | 305° |
| 2026-04-22 14:53 | 24.22740 | 56.93063 | 32469 ft | 452 kts | 306° |
| 2026-04-22 14:53 | 24.24672 | 56.90321 | 31469 ft | 457 kts | 306° |
| 2026-04-22 14:53 | 24.26620 | 56.87548 | 30466 ft | 461 kts | 306° |
| 2026-04-22 14:53 | 24.28588 | 56.84744 | 29385 ft | 467 kts | 306° |
| 2026-04-22 14:54 | 24.30571 | 56.81917 | 28390 ft | 468 kts | 306° |
| 2026-04-22 14:54 | 24.32558 | 56.79087 | 27598 ft | 466 kts | 306° |
| 2026-04-22 14:54 | 24.34520 | 56.76295 | 27151 ft | 454 kts | 306° |
| 2026-04-22 14:54 | 24.36391 | 56.73636 | 26588 ft | 426 kts | 306° |
| 2026-04-22 14:55 | 24.38156 | 56.71127 | 25888 ft | 406 kts | 305° |
| 2026-04-22 14:55 | 24.39855 | 56.68704 | 24918 ft | 396 kts | 305° |
| 2026-04-22 14:55 | 24.41516 | 56.66330 | 23898 ft | 389 kts | 305° |
| 2026-04-22 14:55 | 24.43172 | 56.64006 | 22798 ft | 384 kts | 308° |
| 2026-04-22 14:56 | 24.44911 | 56.61844 | 21601 ft | 380 kts | 310° |
| 2026-04-22 14:56 | 24.46687 | 56.59711 | 20454 ft | 376 kts | 310° |
| 2026-04-22 14:56 | 24.48460 | 56.57621 | 19371 ft | 372 kts | 311° |
| 2026-04-22 14:56 | 24.50225 | 56.55560 | 18339 ft | 368 kts | 312° |
| 2026-04-22 14:57 | 24.51966 | 56.53534 | 17216 ft | 364 kts | 312° |
| 2026-04-22 14:57 | 24.53694 | 56.51527 | 16542 ft | 357 kts | 312° |
| 2026-04-22 14:57 | 24.55379 | 56.49566 | 16283 ft | 348 kts | 311° |
| 2026-04-22 14:57 | 24.57014 | 56.47661 | 16074 ft | 338 kts | 311° |
| 2026-04-22 14:58 | 24.58204 | 56.46271 | 15925 ft | 330 kts | 311° |
| 2026-04-22 14:58 | 24.59714 | 56.44505 | 15731 ft | 322 kts | 311° |
| 2026-04-22 14:58 | 24.61222 | 56.42738 | 15546 ft | 312 kts | 311° |
| 2026-04-22 14:58 | 24.62687 | 56.41019 | 15386 ft | 303 kts | 311° |
| 2026-04-22 14:59 | 24.64089 | 56.39374 | 15191 ft | 295 kts | 311° |
| 2026-04-22 14:59 | 24.65481 | 56.37740 | 14929 ft | 291 kts | 311° |
| 2026-04-22 14:59 | 24.66856 | 56.36123 | 14603 ft | 289 kts | 311° |
| 2026-04-22 14:59 | 24.68231 | 56.34506 | 14272 ft | 288 kts | 311° |
| 2026-04-22 15:00 | 24.69598 | 56.32907 | 13929 ft | 287 kts | 311° |
| 2026-04-22 15:00 | 24.71081 | 56.31436 | 13608 ft | 287 kts | 320° |
| 2026-04-22 15:00 | 24.72747 | 56.30252 | 13238 ft | 287 kts | 330° |
| 2026-04-22 15:00 | 24.74597 | 56.29421 | 12826 ft | 288 kts | 342° |
| 2026-04-22 15:01 | 24.76605 | 56.29328 | 12406 ft | 293 kts | 9° |
| 2026-04-22 15:01 | 24.78489 | 56.30180 | 12037 ft | 296 kts | 33° |
| 2026-04-22 15:01 | 24.80092 | 56.31600 | 11680 ft | 296 kts | 41° |
| 2026-04-22 15:01 | 24.81608 | 56.33121 | 11336 ft | 295 kts | 42° |
| 2026-04-22 15:02 | 24.83116 | 56.34652 | 10973 ft | 294 kts | 42° |
| 2026-04-22 15:02 | 24.84613 | 56.36168 | 10729 ft | 289 kts | 42° |
| 2026-04-22 15:02 | 24.86221 | 56.37442 | 10497 ft | 282 kts | 26° |
| 2026-04-22 15:02 | 24.88059 | 56.38094 | 10198 ft | 276 kts | 3° |
| 2026-04-22 15:03 | 24.89890 | 56.37858 | 10062 ft | 267 kts | 336° |
| 2026-04-22 15:03 | 24.91421 | 56.36770 | 10050 ft | 260 kts | 310° |
| 2026-04-22 15:03 | 24.92344 | 56.35103 | 10056 ft | 255 kts | 291° |
| 2026-04-22 15:03 | 24.93003 | 56.33293 | 10050 ft | 255 kts | 287° |
| 2026-04-22 15:04 | 24.93600 | 56.31451 | 10050 ft | 255 kts | 286° |
| 2026-04-22 15:04 | 24.94145 | 56.29595 | 10044 ft | 254 kts | 284° |
| 2026-04-22 15:04 | 24.94652 | 56.27727 | 10054 ft | 254 kts | 283° |
| 2026-04-22 15:04 | 24.95136 | 56.25856 | 10046 ft | 254 kts | 283° |
| 2026-04-22 15:05 | 24.95607 | 56.23982 | 10048 ft | 254 kts | 283° |
| 2026-04-22 15:05 | 24.96070 | 56.22102 | 10051 ft | 254 kts | 282° |
| 2026-04-22 15:05 | 24.96532 | 56.20224 | 10051 ft | 254 kts | 282° |
| 2026-04-22 15:05 | 24.96993 | 56.18343 | 10051 ft | 254 kts | 282° |
| 2026-04-22 15:06 | 24.97452 | 56.16462 | 10048 ft | 254 kts | 282° |
| 2026-04-22 15:06 | 24.97912 | 56.14573 | 10042 ft | 254 kts | 282° |
| 2026-04-22 15:06 | 24.98366 | 56.12709 | 9897 ft | 257 kts | 282° |
| 2026-04-22 15:06 | 24.98827 | 56.10807 | 9558 ft | 256 kts | 283° |
| 2026-04-22 15:07 | 24.99276 | 56.08956 | 9263 ft | 253 kts | 283° |
| 2026-04-22 15:07 | 24.99732 | 56.07081 | 8939 ft | 252 kts | 282° |
| 2026-04-22 15:07 | 25.00183 | 56.05222 | 8626 ft | 250 kts | 282° |
| 2026-04-22 15:07 | 25.00630 | 56.03372 | 8327 ft | 249 kts | 282° |
| 2026-04-22 15:08 | 25.01076 | 56.01535 | 8088 ft | 247 kts | 282° |
| 2026-04-22 15:08 | 25.01519 | 55.99703 | 8034 ft | 248 kts | 282° |
| 2026-04-22 15:08 | 25.01963 | 55.97864 | 8036 ft | 248 kts | 282° |
| 2026-04-22 15:08 | 25.02407 | 55.96025 | 8030 ft | 248 kts | 282° |
| 2026-04-22 15:09 | 25.02848 | 55.94200 | 8035 ft | 248 kts | 282° |
| 2026-04-22 15:09 | 25.03292 | 55.92361 | 8036 ft | 248 kts | 282° |
| 2026-04-22 15:09 | 25.03735 | 55.90522 | 8030 ft | 248 kts | 282° |
| 2026-04-22 15:09 | 25.04179 | 55.88682 | 8026 ft | 248 kts | 282° |
| 2026-04-22 15:10 | 25.04620 | 55.86851 | 7857 ft | 245 kts | 282° |
| 2026-04-22 15:10 | 25.05059 | 55.85027 | 7512 ft | 246 kts | 282° |
| 2026-04-22 15:10 | 25.05497 | 55.83205 | 7176 ft | 246 kts | 282° |
| 2026-04-22 15:10 | 25.05937 | 55.81378 | 6860 ft | 246 kts | 282° |
| 2026-04-22 15:11 | 25.06372 | 55.79568 | 6584 ft | 244 kts | 282° |
| 2026-04-22 15:11 | 25.06806 | 55.77763 | 6284 ft | 243 kts | 282° |
| 2026-04-22 15:11 | 25.07238 | 55.75962 | 5986 ft | 242 kts | 282° |
| 2026-04-22 15:11 | 25.07666 | 55.74178 | 5705 ft | 239 kts | 282° |
| 2026-04-22 15:12 | 25.08090 | 55.72406 | 5368 ft | 239 kts | 283° |
| 2026-04-22 15:12 | 25.08515 | 55.70633 | 5064 ft | 238 kts | 283° |
| 2026-04-22 15:12 | 25.08931 | 55.68893 | 4764 ft | 237 kts | 283° |
| 2026-04-22 15:12 | 25.09350 | 55.67134 | 4449 ft | 237 kts | 283° |
| 2026-04-22 15:13 | 25.09776 | 55.65357 | 4145 ft | 236 kts | 283° |
| 2026-04-22 15:13 | 25.10251 | 55.63629 | 4026 ft | 237 kts | 291° |
| 2026-04-22 15:13 | 25.11043 | 55.62034 | 4007 ft | 238 kts | 301° |
| 2026-04-22 15:13 | 25.11936 | 55.60495 | 4011 ft | 238 kts | 300° |
| 2026-04-22 15:14 | 25.12804 | 55.58968 | 3919 ft | 238 kts | 300° |
| 2026-04-22 15:14 | 25.13677 | 55.57417 | 3647 ft | 238 kts | 300° |
| 2026-04-22 15:14 | 25.14537 | 55.55854 | 3326 ft | 238 kts | 299° |
| 2026-04-22 15:14 | 25.15395 | 55.54296 | 2989 ft | 237 kts | 300° |
| 2026-04-22 15:15 | 25.16252 | 55.52748 | 2665 ft | 235 kts | 300° |
| 2026-04-22 15:15 | 25.17096 | 55.51224 | 2401 ft | 229 kts | 301° |
| 2026-04-22 15:15 | 25.17888 | 55.49791 | 2103 ft | 204 kts | 301° |
| 2026-04-22 15:15 | 25.18583 | 55.48532 | 1860 ft | 181 kts | 303° |
| 2026-04-22 15:16 | 25.19209 | 55.47399 | 1634 ft | 166 kts | 304° |
| 2026-04-22 15:16 | 25.19790 | 55.46349 | 1417 ft | 152 kts | 305° |
| 2026-04-22 15:16 | 25.20316 | 55.45404 | 1255 ft | 143 kts | 304° |
| 2026-04-22 15:16 | 25.20831 | 55.44471 | 1069 ft | 140 kts | 304° |
| 2026-04-22 15:17 | 25.21334 | 55.43564 | 911 ft | 141 kts | 303° |
| 2026-04-22 15:17 | 25.21856 | 55.42624 | 752 ft | 144 kts | 305° |
| 2026-04-22 15:17 | 25.22367 | 55.41699 | 555 ft | 138 kts | 303° |
| 2026-04-22 15:17 | 25.22867 | 55.40793 | 400 ft | 141 kts | 303° |
| 2026-04-22 15:18 | 25.23381 | 55.39856 | 234 ft | 141 kts | 302° |
| 2026-04-22 15:18 | 25.23896 | 55.38939 | 48 ft | 138 kts | 306° |
| 2026-04-22 15:18 | 25.24353 | 55.38120 | 38 ft | 101 kts | 300° |
| 2026-04-22 15:18 | 25.24611 | 55.37652 | 34 ft | 42 kts | 301° |
| 2026-04-22 15:19 | 25.24708 | 55.37474 | 34 ft | 25 kts | 300° |
| 2026-04-22 15:19 | 25.24780 | 55.37274 | 36 ft | 27 kts | 276° |
| 2026-04-22 15:19 | 25.24779 | 55.37110 | 32 ft | 5 kts | 240° |
| 2026-04-22 15:19 | 25.24752 | 55.37097 | 31 ft | 1 kts | 208° |
| 2026-04-22 15:20 | 25.24750 | 55.37092 | 30 ft | 2 kts | 229° |
| 2026-04-22 15:20 | 25.24768 | 55.36998 | 29 ft | 17 kts | 282° |
| 2026-04-22 15:20 | 25.24723 | 55.36924 | 28 ft | 13 kts | 213° |
| 2026-04-22 15:20 | 25.24643 | 55.36870 | 27 ft | 14 kts | 211° |
| 2026-04-22 15:21 | 25.24568 | 55.36820 | 28 ft | 6 kts | 212° |
| 2026-04-22 15:21 | 25.24528 | 55.36792 | 27 ft | 8 kts | 212° |
| 2026-04-22 15:21 | 25.24506 | 55.36777 | 27 ft | 0 kts | 211° |
| 2026-04-22 15:21 | 25.24501 | 55.36774 | 27 ft | 5 kts | 211° |
| 2026-04-22 15:22 | 25.24441 | 55.36728 | 27 ft | 14 kts | 222° |
| 2026-04-22 15:22 | 25.24387 | 55.36632 | 27 ft | 16 kts | 250° |
| 2026-04-22 15:22 | 25.24379 | 55.36507 | 27 ft | 16 kts | 281° |
| 2026-04-22 15:22 | 25.24396 | 55.36453 | 27 ft | 0 kts | 295° |
| 2026-04-22 15:24 | 25.24415 | 55.36416 | 27 ft | 14 kts | 300° |
| 2026-04-22 15:24 | 25.24481 | 55.36298 | 27 ft | 22 kts | 302° |
| 2026-04-22 15:24 | 25.24564 | 55.36151 | 27 ft | 24 kts | 301° |
| 2026-04-22 15:24 | 25.24654 | 55.35991 | 25 ft | 25 kts | 302° |
| 2026-04-22 15:25 | 25.24729 | 55.35856 | 27 ft | 0 kts | 302° |
| 2026-04-22 15:25 | 25.24747 | 55.35825 | 27 ft | 16 kts | 301° |
| 2026-04-22 15:25 | 25.24821 | 55.35699 | 27 ft | 17 kts | 316° |
| 2026-04-22 15:25 | 25.24862 | 55.35700 | 27 ft | 5 kts | 32° |
| 2026-04-22 15:26 | 25.24903 | 55.35728 | 27 ft | 9 kts | 31° |
| 2026-04-22 15:26 | 25.24952 | 55.35761 | 27 ft | 3 kts | 31° |
| 2026-04-22 15:26 | 25.24959 | 55.35766 | 27 ft | 0 kts | 31° |
| 2026-04-22 15:26 | 25.24960 | 55.35766 | 27 ft | 0 kts | 31° |
| 2026-04-22 15:27 | 25.24966 | 55.35770 | 27 ft | 1 kts | 31° |
| 2026-04-22 15:27 | 25.24967 | 55.35771 | 27 ft | 0 kts | 31° |